createdAt,value
2022-09-16T00:02:06.869Z,2.90
2022-09-16T00:04:41.190Z,3.38
2022-09-16T00:07:11.698Z,3.75
2022-09-16T00:09:47.510Z,5.07
2022-09-16T00:12:19.589Z,4.03
2022-09-16T00:14:52.442Z,3.10
2022-09-16T00:17:21.198Z,3.33
2022-09-16T00:19:51.304Z,3.10
2022-09-16T00:22:19.840Z,2.70
2022-09-16T00:24:51.611Z,2.60
2022-09-16T00:27:25.890Z,3.15
2022-09-16T00:29:55.655Z,3.10
2022-09-16T00:32:25.291Z,2.42
2022-09-16T00:34:54.112Z,3.17
2022-09-16T00:37:23.536Z,2.80
2022-09-16T00:39:52.053Z,2.60
2022-09-16T00:42:28.840Z,3.17
2022-09-16T00:45:35.007Z,2.78
2022-09-16T00:48:10.101Z,2.65
2022-09-16T00:50:48.613Z,2.70
2022-09-16T00:53:30.393Z,3.53
2022-09-16T00:56:06.068Z,2.70
2022-09-16T00:58:46.988Z,2.65
2022-09-16T01:01:26.253Z,2.50
2022-09-16T01:04:08.165Z,2.53
2022-09-16T01:06:41.769Z,2.65
2022-09-16T01:09:16.828Z,2.70
2022-09-16T01:11:48.051Z,2.38
2022-09-16T01:14:40.841Z,2.60
2022-09-16T01:17:35.427Z,2.42
2022-09-16T01:20:16.848Z,2.40
2022-09-16T01:23:03.398Z,2.38
2022-09-16T01:25:32.754Z,2.38
2022-09-16T01:28:16.822Z,2.33
2022-09-16T01:30:58.187Z,2.60
2022-09-16T01:34:02.611Z,2.50
2022-09-16T01:36:40.577Z,2.60
2022-09-16T01:39:33.679Z,2.70
2022-09-16T01:42:28.569Z,3.63
2022-09-16T01:45:32.193Z,3.13
2022-09-16T01:48:17.790Z,2.45
2022-09-16T01:51:10.815Z,2.40
2022-09-16T01:54:01.546Z,2.30
2022-09-16T01:57:03.809Z,2.60
2022-09-16T02:00:06.963Z,2.97
2022-09-16T02:03:07.210Z,2.75
2022-09-16T02:05:40.536Z,2.95
2022-09-16T02:08:27.797Z,3.00
2022-09-16T02:11:02.821Z,3.30
2022-09-16T02:13:39.608Z,3.65
2022-09-16T02:16:28.703Z,3.30
2022-09-16T02:19:04.188Z,3.22
2022-09-16T02:21:44.910Z,3.55
2022-09-16T02:27:06.614Z,2.92
2022-09-16T02:29:54.518Z,2.85
2022-09-16T02:32:29.930Z,3.10
2022-09-16T02:35:00.899Z,2.85
2022-09-16T02:38:05.907Z,2.75
2022-09-16T02:40:51.844Z,3.55
2022-09-16T02:43:22.216Z,3.03
2022-09-16T02:46:07.004Z,2.65
2022-09-16T02:49:11.117Z,2.90
2022-09-16T02:51:56.022Z,2.80
2022-09-16T02:54:43.599Z,3.20
2022-09-16T02:57:12.494Z,2.50
2022-09-16T02:59:47.416Z,2.65
2022-09-16T03:02:16.317Z,3.05
2022-09-16T03:04:46.467Z,3.13
2022-09-16T03:07:19.212Z,3.03
2022-09-16T03:09:51.768Z,2.67
2022-09-16T03:13:05.423Z,3.13
2022-09-16T03:15:45.453Z,3.10
2022-09-16T03:18:58.728Z,2.70
2022-09-16T03:21:35.438Z,2.85
2022-09-16T03:24:12.169Z,2.90
2022-09-16T03:26:50.848Z,3.00
2022-09-16T03:29:43.850Z,3.00
2022-09-16T03:32:26.447Z,3.00
2022-09-16T03:35:20.412Z,3.17
2022-09-16T03:37:54.511Z,2.78
2022-09-16T03:40:24.373Z,3.13
2022-09-16T03:43:10.568Z,3.05
2022-09-16T03:45:44.392Z,3.22
2022-09-16T03:48:14.157Z,2.75
2022-09-16T03:50:42.727Z,2.92
2022-09-16T03:53:14.799Z,2.95
2022-09-16T03:55:44.142Z,2.78
2022-09-16T03:58:12.773Z,4.60
2022-09-16T04:00:41.461Z,4.05
2022-09-16T04:03:12.358Z,3.33
2022-09-16T04:05:41.206Z,3.63
2022-09-16T04:08:10.651Z,4.10
2022-09-16T04:10:45.753Z,3.92
2022-09-16T04:13:17.318Z,3.97
2022-09-16T04:15:45.799Z,3.65
2022-09-16T04:18:14.681Z,3.30
2022-09-16T04:20:48.404Z,3.38
2022-09-16T04:23:17.834Z,3.53
2022-09-16T04:25:56.055Z,3.53
2022-09-16T04:28:26.855Z,2.90
2022-09-16T04:30:59.811Z,3.33
2022-09-16T04:33:30.407Z,3.40
2022-09-16T04:36:15.670Z,3.60
2022-09-16T04:38:48.429Z,4.20
2022-09-16T04:41:23.558Z,5.22
2022-09-16T04:43:58.045Z,6.10
2022-09-16T04:46:36.045Z,7.25
2022-09-16T04:49:13.411Z,4.93
2022-09-16T04:51:42.877Z,3.97
2022-09-16T04:54:12.983Z,3.20
2022-09-16T04:56:41.834Z,3.97
2022-09-16T04:59:14.605Z,3.67
2022-09-16T05:01:44.465Z,3.22
2022-09-16T05:04:17.092Z,3.50
2022-09-16T05:06:49.528Z,3.00
2022-09-16T05:09:22.652Z,2.95
2022-09-16T05:11:56.825Z,3.10
2022-09-16T05:14:36.706Z,2.90
2022-09-16T05:17:09.328Z,2.67
2022-09-16T05:19:43.660Z,2.67
2022-09-16T05:22:25.816Z,2.38
2022-09-16T05:25:01.491Z,3.10
2022-09-16T05:27:40.009Z,2.42
2022-09-16T05:30:15.074Z,2.65
2022-09-16T05:32:47.599Z,3.20
2022-09-16T05:35:21.815Z,3.20
2022-09-16T05:37:51.178Z,2.88
2022-09-16T05:40:29.694Z,2.90
2022-09-16T05:43:06.355Z,3.28
2022-09-16T05:45:36.264Z,2.58
2022-09-16T05:48:05.666Z,2.85
2022-09-16T05:50:34.006Z,2.80
2022-09-16T05:53:10.319Z,3.53
2022-09-16T05:55:43.007Z,2.53
2022-09-16T05:58:12.619Z,3.20
2022-09-16T06:00:45.316Z,2.63
2022-09-16T06:03:21.674Z,2.78
2022-09-16T06:05:53.132Z,2.42
2022-09-16T06:08:23.040Z,2.50
2022-09-16T06:10:54.424Z,2.58
2022-09-16T06:13:23.924Z,3.47
2022-09-16T06:15:56.129Z,2.70
2022-09-16T06:18:29.815Z,2.30
2022-09-16T06:20:59.372Z,2.92
2022-09-16T06:23:28.283Z,2.55
2022-09-16T06:26:12.076Z,2.95
2022-09-16T06:28:43.999Z,18.45
2022-09-16T06:31:24.296Z,10.93
2022-09-16T06:33:57.814Z,13.63
2022-09-16T06:36:42.738Z,9.73
2022-09-16T06:39:16.323Z,6.35
2022-09-16T06:41:47.265Z,5.97
2022-09-16T06:44:20.313Z,5.00
2022-09-16T06:46:52.148Z,4.55
2022-09-16T06:49:26.048Z,4.22
2022-09-16T06:52:01.266Z,5.70
2022-09-16T06:57:14.809Z,4.28
2022-09-16T06:59:43.931Z,4.18
2022-09-16T07:02:23.250Z,4.68
2022-09-16T07:05:00.585Z,4.97
2022-09-16T07:07:35.944Z,5.45
2022-09-16T07:10:07.088Z,4.80
2022-09-16T07:12:42.636Z,3.72
2022-09-16T07:15:14.668Z,4.03
2022-09-16T07:17:46.138Z,4.18
2022-09-16T07:20:16.500Z,2.88
2022-09-16T07:22:52.262Z,3.03
2022-09-16T07:25:24.851Z,3.22
2022-09-16T07:28:00.566Z,3.42
2022-09-16T07:30:37.938Z,2.72
2022-09-16T07:33:07.160Z,2.53
2022-09-16T07:35:43.167Z,2.60
2022-09-16T07:38:13.996Z,1.85
2022-09-16T07:40:46.499Z,2.13
2022-09-16T07:43:16.773Z,2.40
2022-09-16T07:45:57.950Z,1.90
2022-09-16T07:48:34.654Z,1.70
2022-09-16T07:51:07.010Z,1.67
2022-09-16T07:53:36.971Z,2.08
2022-09-16T07:56:15.994Z,1.80
2022-09-16T07:58:47.693Z,1.90
2022-09-16T08:01:24.165Z,1.90
2022-09-16T08:04:04.981Z,2.33
2022-09-16T08:06:39.886Z,1.75
2022-09-16T08:12:15.272Z,2.10
2022-09-16T08:14:49.788Z,2.00
2022-09-16T08:17:33.494Z,1.75
2022-09-16T08:20:07.604Z,2.00
2022-09-16T08:22:39.698Z,2.15
2022-09-16T08:25:12.587Z,1.90
2022-09-16T08:27:46.111Z,2.30
2022-09-16T08:30:15.107Z,1.75
2022-09-16T08:32:48.149Z,1.75
2022-09-16T08:35:18.575Z,2.28
2022-09-16T08:37:50.263Z,4.40
2022-09-16T08:43:16.443Z,2.03
2022-09-16T08:46:15.763Z,1.40
2022-09-16T08:51:50.719Z,1.95
2022-09-16T08:54:32.438Z,1.45
2022-09-16T08:57:07.485Z,2.30
2022-09-16T08:59:43.416Z,1.70
2022-09-16T09:02:29.377Z,2.22
2022-09-16T09:05:02.003Z,1.92
2022-09-16T09:07:52.206Z,1.73
2022-09-16T09:10:38.617Z,1.92
2022-09-16T09:13:25.869Z,1.70
2022-09-16T09:16:30.493Z,1.75
2022-09-16T09:19:43.507Z,2.20
2022-09-16T09:22:45.930Z,1.90
2022-09-16T09:25:26.525Z,1.70
2022-09-16T09:28:07.734Z,1.55
2022-09-16T09:30:46.790Z,1.92
2022-09-16T09:33:59.338Z,2.10
2022-09-16T09:36:46.794Z,1.80
2022-09-16T09:39:25.522Z,1.40
2022-09-16T09:42:12.497Z,1.60
2022-09-16T09:45:02.805Z,1.98
2022-09-16T09:47:48.284Z,1.35
2022-09-16T09:50:19.145Z,1.60
2022-09-16T09:53:07.057Z,2.17
2022-09-16T09:55:36.434Z,1.63
2022-09-16T09:58:46.605Z,1.73
2022-09-16T10:01:18.860Z,1.77
2022-09-16T10:03:51.859Z,2.28
2022-09-16T10:06:30.063Z,1.40
2022-09-16T10:08:59.886Z,1.42
2022-09-16T10:11:32.974Z,1.50
2022-09-16T10:14:05.374Z,2.03
2022-09-16T10:16:38.668Z,1.58
2022-09-16T10:19:18.311Z,1.30
2022-09-16T10:21:55.945Z,1.55
2022-09-16T10:24:43.747Z,1.60
2022-09-16T10:27:38.602Z,1.67
2022-09-16T10:33:08.444Z,1.40
2022-09-16T10:36:07.321Z,1.63
2022-09-16T10:38:51.106Z,1.63
2022-09-16T10:41:33.306Z,1.70
2022-09-16T10:44:19.413Z,1.52
2022-09-16T10:47:18.239Z,1.35
2022-09-16T10:49:57.346Z,1.58
2022-09-16T10:52:48.365Z,1.92
2022-09-16T10:55:23.012Z,1.60
2022-09-16T10:57:53.118Z,1.80
2022-09-16T11:00:33.894Z,1.48
2022-09-16T11:03:33.374Z,1.50
2022-09-16T11:06:10.207Z,1.40
2022-09-16T11:09:05.907Z,1.95
2022-09-16T11:12:11.956Z,1.50
2022-09-16T11:15:06.498Z,1.40
2022-09-16T11:18:04.352Z,1.40
2022-09-16T11:20:59.507Z,2.05
2022-09-16T11:23:38.096Z,1.65
2022-09-16T11:26:22.197Z,1.40
2022-09-16T11:29:12.974Z,1.40
2022-09-16T11:32:13.653Z,1.55
2022-09-16T11:34:57.852Z,1.50
2022-09-16T11:38:08.544Z,1.70
2022-09-16T11:41:02.636Z,1.27
2022-09-16T11:43:51.064Z,1.10
2022-09-16T11:47:11.037Z,1.30
2022-09-16T11:49:55.825Z,1.00
2022-09-16T11:52:50.230Z,1.60
2022-09-16T11:55:22.879Z,1.40
2022-09-16T11:58:06.220Z,1.27
2022-09-16T12:00:38.973Z,1.30
2022-09-16T12:03:31.720Z,1.35
2022-09-16T12:06:11.700Z,1.33
2022-09-16T12:08:51.219Z,1.20
2022-09-16T12:11:53.076Z,1.00
2022-09-16T12:14:43.164Z,0.90
2022-09-16T12:17:27.363Z,1.10
2022-09-16T12:20:09.235Z,1.00
2022-09-16T12:23:10.391Z,1.27
2022-09-16T12:25:54.611Z,1.10
2022-09-16T12:29:00.469Z,0.75
2022-09-16T12:31:56.180Z,1.40
2022-09-16T12:34:42.721Z,1.30
2022-09-16T12:37:50.162Z,1.40
2022-09-16T12:40:25.123Z,1.50
2022-09-16T12:43:38.902Z,1.02
2022-09-16T12:46:35.297Z,1.40
2022-09-16T12:49:41.804Z,1.02
2022-09-16T12:52:57.415Z,1.23
2022-09-16T12:56:00.353Z,1.48
2022-09-16T12:59:06.247Z,1.10
2022-09-16T13:01:50.564Z,1.42
2022-09-16T13:04:35.752Z,1.42
2022-09-16T13:07:42.623Z,1.10
2022-09-16T13:10:53.887Z,1.10
2022-09-16T13:13:32.968Z,0.90
2022-09-16T13:16:09.909Z,0.88
2022-09-16T13:18:50.972Z,1.15
2022-09-16T13:21:40.022Z,1.10
2022-09-16T13:24:40.843Z,1.00
2022-09-16T13:27:32.344Z,1.10
2022-09-16T13:30:16.753Z,1.25
2022-09-16T13:32:58.059Z,0.97
2022-09-16T13:35:38.563Z,1.05
2022-09-16T13:38:20.010Z,1.30
2022-09-16T13:41:01.015Z,1.40
2022-09-16T13:43:51.733Z,1.00
2022-09-16T13:46:51.116Z,1.02
2022-09-16T13:49:27.664Z,1.10
2022-09-16T13:51:58.775Z,0.82
2022-09-16T13:54:27.848Z,1.02
2022-09-16T13:57:12.483Z,1.00
2022-09-16T14:00:20.038Z,1.17
2022-09-16T14:03:10.063Z,0.93
2022-09-16T14:05:57.960Z,1.15
2022-09-16T14:08:37.416Z,1.23
2022-09-16T14:11:50.467Z,1.30
2022-09-16T14:17:31.118Z,1.17
2022-09-16T14:20:02.122Z,8.95
2022-09-16T14:22:38.833Z,14.60
2022-09-16T14:25:29.684Z,5.57
2022-09-16T14:28:22.448Z,1.70
2022-09-16T14:31:07.934Z,1.50
2022-09-16T14:33:43.587Z,1.25
2022-09-16T14:36:21.142Z,1.40
2022-09-16T14:39:16.038Z,1.58
2022-09-16T14:42:15.563Z,0.90
2022-09-16T14:45:01.018Z,1.73
2022-09-16T14:47:54.081Z,20.80
2022-09-16T14:50:37.259Z,3.45
2022-09-16T14:53:38.642Z,3.10
2022-09-16T14:56:22.102Z,10.35
2022-09-16T14:58:53.750Z,5.07
2022-09-16T15:01:29.633Z,4.93
2022-09-16T15:04:02.806Z,6.65
2022-09-16T15:06:46.008Z,3.88
2022-09-16T15:09:41.245Z,2.33
2022-09-16T15:12:28.854Z,7.68
2022-09-16T15:15:31.054Z,12.00
2022-09-16T15:18:32.668Z,8.68
2022-09-16T15:21:21.907Z,9.98
2022-09-16T15:23:59.140Z,14.73
2022-09-16T15:26:40.501Z,5.40
2022-09-16T15:29:32.457Z,7.03
2022-09-16T15:32:30.235Z,8.95
2022-09-16T15:35:15.745Z,21.23
2022-09-16T15:37:46.344Z,21.92
2022-09-16T15:40:26.690Z,7.70
2022-09-16T15:43:11.219Z,4.07
2022-09-16T15:45:40.369Z,4.22
2022-09-16T15:48:20.839Z,3.47
2022-09-16T15:50:56.635Z,3.40
2022-09-16T15:53:47.493Z,4.50
2022-09-16T15:56:51.783Z,3.35
2022-09-16T15:59:55.912Z,9.32
2022-09-16T16:02:47.563Z,6.85
2022-09-16T16:05:53.770Z,12.60
2022-09-16T16:08:41.955Z,11.27
2022-09-16T16:11:36.135Z,5.35
2022-09-16T16:14:10.902Z,3.72
2022-09-16T16:17:08.672Z,3.72
2022-09-16T16:19:31.855Z,4.32
2022-09-16T16:22:01.204Z,2.85
2022-09-16T16:24:30.980Z,2.35
2022-09-16T16:27:02.552Z,2.80
2022-09-16T16:29:32.147Z,2.42
2022-09-16T16:32:04.439Z,1.80
2022-09-16T16:34:45.189Z,2.63
2022-09-16T16:37:40.210Z,2.55
2022-09-16T16:40:08.199Z,1.98
2022-09-16T16:42:40.799Z,2.65
2022-09-16T16:45:10.027Z,2.28
2022-09-16T16:47:38.933Z,1.70
2022-09-16T16:50:09.257Z,2.28
2022-09-16T16:52:38.370Z,2.42
2022-09-16T16:55:08.090Z,2.22
2022-09-16T16:57:41.925Z,2.15
2022-09-16T17:00:15.267Z,2.25
2022-09-16T17:02:45.235Z,2.60
2022-09-16T17:05:14.070Z,2.55
2022-09-16T17:07:42.821Z,2.97
2022-09-16T17:10:13.312Z,2.85
2022-09-16T17:12:45.675Z,2.60
2022-09-16T17:15:14.538Z,2.33
2022-09-16T17:17:49.111Z,3.08
2022-09-16T17:20:22.200Z,2.47
2022-09-16T17:22:57.498Z,2.97
2022-09-16T17:25:25.934Z,2.85
2022-09-16T17:27:54.614Z,2.55
2022-09-16T17:30:29.286Z,2.30
2022-09-16T17:32:58.132Z,2.28
2022-09-16T17:35:26.584Z,1.90
2022-09-16T17:37:55.486Z,3.28
2022-09-16T17:40:24.350Z,2.05
2022-09-16T17:42:53.446Z,2.45
2022-09-16T17:45:28.419Z,2.92
2022-09-16T17:47:59.646Z,2.33
2022-09-16T17:50:32.431Z,3.00
2022-09-16T17:53:01.313Z,3.90
2022-09-16T17:55:30.503Z,3.33
2022-09-16T17:58:09.334Z,3.28
2022-09-16T18:00:39.118Z,3.10
2022-09-16T18:03:14.703Z,4.17
2022-09-16T18:05:44.061Z,5.30
2022-09-16T18:08:15.383Z,3.70
2022-09-16T18:10:53.260Z,3.13
2022-09-16T18:13:25.216Z,3.70
2022-09-16T18:15:54.528Z,4.50
2022-09-16T18:18:24.011Z,3.50
2022-09-16T18:23:33.480Z,3.85
2022-09-16T18:26:12.824Z,5.43
2022-09-16T18:29:11.800Z,5.40
2022-09-16T18:31:46.610Z,4.43
2022-09-16T18:34:17.472Z,4.18
2022-09-16T18:36:46.864Z,4.15
2022-09-16T18:39:21.319Z,4.03
2022-09-16T18:42:06.428Z,2.80
2022-09-16T18:44:41.831Z,2.88
2022-09-16T18:47:10.665Z,3.10
2022-09-16T18:49:39.049Z,2.80
2022-09-16T18:52:13.882Z,3.38
2022-09-16T18:54:49.128Z,2.88
2022-09-16T18:57:22.094Z,3.00
2022-09-16T18:59:51.414Z,5.07
2022-09-16T19:02:20.528Z,4.85
2022-09-16T19:04:58.286Z,5.70
2022-09-16T19:07:30.252Z,5.28
2022-09-16T19:12:43.242Z,3.70
2022-09-16T19:15:16.046Z,5.88
2022-09-16T19:17:50.320Z,9.95
2022-09-16T19:20:19.341Z,11.13
2022-09-16T19:22:48.140Z,7.03
2022-09-16T19:25:16.774Z,7.03
2022-09-16T19:27:46.115Z,9.55
2022-09-16T19:30:15.719Z,10.70
2022-09-16T19:32:47.602Z,12.23
2022-09-16T19:35:19.567Z,14.02
2022-09-16T19:37:48.860Z,12.95
2022-09-16T19:40:18.749Z,12.25
2022-09-16T19:42:47.943Z,9.32
2022-09-16T19:45:19.523Z,7.43
2022-09-16T19:47:53.949Z,6.07
2022-09-16T19:50:22.892Z,5.40
2022-09-16T19:53:03.371Z,5.03
2022-09-16T19:55:35.162Z,5.20
2022-09-16T19:58:06.650Z,5.03
2022-09-16T20:00:55.481Z,5.43
2022-09-16T20:03:32.799Z,4.95
2022-09-16T20:06:08.332Z,5.50
2022-09-16T20:08:41.597Z,4.60
2022-09-16T20:11:22.731Z,4.93
2022-09-16T20:13:57.492Z,4.65
2022-09-16T20:16:31.627Z,4.45
2022-09-16T20:19:04.601Z,4.45
2022-09-16T20:21:35.477Z,5.00
2022-09-16T20:24:06.388Z,4.72
2022-09-16T20:26:37.756Z,4.18
2022-09-16T20:29:08.885Z,4.55
2022-09-16T20:31:38.044Z,4.43
2022-09-16T20:34:07.217Z,3.60
2022-09-16T20:36:38.549Z,3.30
2022-09-16T20:39:09.223Z,3.38
2022-09-16T20:41:39.983Z,4.03
2022-09-16T20:44:11.770Z,4.70
2022-09-16T20:46:45.145Z,5.00
2022-09-16T20:49:16.891Z,4.57
2022-09-16T20:51:48.004Z,5.30
2022-09-16T20:54:17.115Z,5.80
2022-09-16T20:56:47.938Z,5.65
2022-09-16T20:59:18.160Z,7.97
2022-09-16T21:01:48.852Z,6.43
2022-09-16T21:04:20.868Z,6.55
2022-09-16T21:06:49.264Z,6.22
2022-09-16T21:09:20.717Z,6.72
2022-09-16T21:11:50.058Z,6.65
2022-09-16T21:14:18.711Z,6.38
2022-09-16T21:16:52.664Z,5.78
2022-09-16T21:19:20.952Z,6.63
2022-09-16T21:21:49.692Z,5.53
2022-09-16T21:24:18.646Z,5.75
2022-09-16T21:26:50.987Z,5.32
2022-09-16T21:29:21.432Z,6.65
2022-09-16T21:31:50.155Z,7.93
2022-09-16T21:34:22.005Z,6.07
2022-09-16T21:36:51.781Z,4.90
2022-09-16T21:39:33.709Z,6.53
2022-09-16T21:42:05.895Z,4.55
2022-09-16T21:44:38.001Z,4.47
2022-09-16T21:47:11.615Z,4.43
2022-09-16T21:49:40.859Z,3.67
2022-09-16T21:52:13.031Z,3.80
2022-09-16T21:54:41.567Z,3.63
2022-09-16T21:57:10.871Z,4.15
2022-09-16T21:59:39.190Z,4.22
2022-09-16T22:02:07.565Z,4.28
2022-09-16T22:04:36.012Z,4.10
2022-09-16T22:07:04.714Z,3.92
2022-09-16T22:09:33.226Z,3.60
2022-09-16T22:12:01.864Z,3.53
2022-09-16T22:14:33.343Z,3.90
2022-09-16T22:17:04.094Z,3.80
2022-09-16T22:19:32.592Z,3.53
2022-09-16T22:22:00.835Z,3.88
2022-09-16T22:24:28.878Z,4.55
2022-09-16T22:26:57.411Z,3.90
2022-09-16T22:29:25.800Z,3.35
2022-09-16T22:31:54.235Z,3.92
2022-09-16T22:34:25.432Z,3.60
2022-09-16T22:36:56.688Z,4.05
2022-09-16T22:39:25.657Z,3.30
2022-09-16T22:41:54.477Z,3.38
2022-09-16T22:44:27.818Z,3.95
2022-09-16T22:46:57.228Z,3.25
2022-09-16T22:49:27.795Z,2.92
2022-09-16T22:51:55.972Z,3.72
2022-09-16T22:54:25.311Z,3.67
2022-09-16T22:56:53.718Z,4.28
2022-09-16T22:59:24.518Z,3.88
2022-09-16T23:01:54.277Z,4.18
2022-09-16T23:04:29.168Z,3.40
2022-09-16T23:07:10.441Z,4.43
2022-09-16T23:09:39.842Z,3.65
2022-09-16T23:12:11.638Z,2.70
2022-09-16T23:17:11.460Z,3.58
2022-09-16T23:19:42.839Z,4.25
2022-09-16T23:22:16.479Z,3.95
2022-09-16T23:24:48.333Z,3.45
2022-09-16T23:27:20.127Z,3.97
2022-09-16T23:29:49.385Z,3.33
2022-09-16T23:32:29.775Z,4.05
2022-09-16T23:35:00.651Z,3.25
2022-09-16T23:37:30.344Z,3.38
2022-09-16T23:39:59.829Z,3.80
2022-09-16T23:42:28.615Z,3.90
2022-09-16T23:45:00.064Z,4.20
2022-09-16T23:47:36.918Z,4.10
2022-09-16T23:50:06.118Z,5.05
2022-09-16T23:52:40.671Z,4.03
2022-09-16T23:55:15.202Z,3.70
2022-09-16T23:57:55.935Z,3.95
